createdAt,value
2022-08-16T00:03:44.859Z,20.50
2022-08-16T00:10:45.625Z,20.40
2022-08-16T00:17:56.326Z,20.40
2022-08-16T00:24:57.610Z,20.30
2022-08-16T00:32:06.084Z,20.20
2022-08-16T00:39:06.826Z,20.10
2022-08-16T00:46:33.766Z,20.10
2022-08-16T00:53:35.693Z,20.00
2022-08-16T01:00:36.477Z,19.90
2022-08-16T01:07:51.179Z,19.90
2022-08-16T01:14:57.261Z,19.90
2022-08-16T01:22:49.490Z,19.80
2022-08-16T01:30:20.500Z,19.80
2022-08-16T01:37:24.744Z,19.70
2022-08-16T01:44:33.486Z,19.70
2022-08-16T01:51:41.935Z,19.60
2022-08-16T01:58:48.010Z,19.50
2022-08-16T02:05:51.934Z,19.50
2022-08-16T02:13:00.116Z,19.40
2022-08-16T02:20:04.179Z,19.40
2022-08-16T02:27:12.569Z,19.30
2022-08-16T02:34:13.651Z,19.20
2022-08-16T02:41:14.609Z,19.20
2022-08-16T02:48:29.727Z,19.20
2022-08-16T02:55:41.185Z,19.20
2022-08-16T03:02:44.691Z,19.10
2022-08-16T03:09:48.401Z,19.00
2022-08-16T03:17:00.398Z,18.90
2022-08-16T03:24:29.351Z,18.80
2022-08-16T03:31:34.603Z,18.70
2022-08-16T03:38:41.262Z,18.60
2022-08-16T03:45:48.098Z,18.60
2022-08-16T03:52:48.958Z,18.50
2022-08-16T03:59:51.125Z,18.50
2022-08-16T04:06:52.048Z,18.50
2022-08-16T04:14:00.154Z,18.40
2022-08-16T04:21:13.718Z,18.40
2022-08-16T04:28:53.300Z,18.40
2022-08-16T04:35:51.137Z,18.40
2022-08-16T04:42:52.125Z,18.40
2022-08-16T04:49:56.594Z,18.40
2022-08-16T04:56:58.417Z,18.50
2022-08-16T05:04:01.728Z,18.50
2022-08-16T05:11:22.456Z,18.50
2022-08-16T05:18:23.527Z,18.50
2022-08-16T05:25:41.178Z,18.50
2022-08-16T05:32:50.004Z,18.60
2022-08-16T05:39:51.498Z,18.60
2022-08-16T05:47:00.250Z,18.70
2022-08-16T05:54:03.297Z,18.80
2022-08-16T06:01:04.716Z,18.90
2022-08-16T06:08:08.685Z,19.10
2022-08-16T06:15:28.980Z,19.30
2022-08-16T06:22:39.010Z,19.50
2022-08-16T06:29:40.001Z,19.70
2022-08-16T06:36:42.901Z,19.90
2022-08-16T06:43:51.493Z,20.20
2022-08-16T06:50:58.402Z,20.40
2022-08-16T06:57:59.253Z,20.60
2022-08-16T07:05:01.093Z,20.80
2022-08-16T07:12:03.443Z,21.10
2022-08-16T07:19:09.031Z,21.30
2022-08-16T07:26:25.351Z,21.60
2022-08-16T07:33:53.663Z,21.90
2022-08-16T07:41:00.755Z,22.10
2022-08-16T07:48:11.565Z,22.40
2022-08-16T07:55:17.364Z,22.60
2022-08-16T08:02:20.513Z,22.80
2022-08-16T08:09:24.984Z,23.10
2022-08-16T08:16:30.441Z,23.30
2022-08-16T08:23:31.910Z,23.40
2022-08-16T08:30:51.338Z,23.60
2022-08-16T08:37:56.301Z,23.90
2022-08-16T08:44:59.828Z,24.00
2022-08-16T08:52:02.236Z,24.10
2022-08-16T08:59:13.530Z,24.00
2022-08-16T09:06:20.747Z,24.10
2022-08-16T09:13:21.686Z,24.30
2022-08-16T09:20:25.922Z,24.30
2022-08-16T09:27:28.467Z,24.60
2022-08-16T09:34:47.762Z,24.90
2022-08-16T09:41:53.476Z,25.10
2022-08-16T09:48:56.372Z,25.20
2022-08-16T09:55:57.017Z,25.20
2022-08-16T10:02:58.418Z,25.40
2022-08-16T10:10:02.073Z,25.70
2022-08-16T10:17:04.669Z,25.80
2022-08-16T10:24:07.535Z,26.20
2022-08-16T10:31:11.658Z,26.50
2022-08-16T10:38:26.991Z,26.80
2022-08-16T10:45:36.776Z,27.10
2022-08-16T10:59:51.848Z,27.40
2022-08-16T11:14:17.005Z,27.70
2022-08-16T11:21:29.368Z,27.80
2022-08-16T11:43:16.739Z,28.10
2022-08-16T11:50:17.658Z,28.20
2022-08-16T11:57:18.626Z,28.40
2022-08-16T12:04:20.231Z,28.40
2022-08-16T12:11:23.719Z,28.70
2022-08-16T12:18:27.251Z,28.80
2022-08-16T12:25:29.524Z,29.10
2022-08-16T12:32:38.991Z,29.60
2022-08-16T12:39:50.597Z,29.80
2022-08-16T12:47:11.943Z,30.00
2022-08-16T12:54:15.194Z,29.90
2022-08-16T13:01:15.564Z,29.80
2022-08-16T13:08:20.181Z,29.70
2022-08-16T13:15:23.970Z,30.30
2022-08-16T13:22:24.822Z,30.90
2022-08-16T13:29:35.683Z,31.80
2022-08-16T13:36:49.502Z,32.50
2022-08-16T13:43:57.420Z,31.80
2022-08-16T13:51:04.315Z,31.80
2022-08-16T13:58:37.805Z,31.80
2022-08-16T14:05:26.133Z,32.30
2022-08-16T14:12:30.764Z,32.90
2022-08-16T14:19:31.183Z,33.20
2022-08-16T14:26:33.434Z,32.50
2022-08-16T14:33:33.857Z,32.20
2022-08-16T14:40:37.572Z,32.10
2022-08-16T14:47:38.607Z,32.20
2022-08-16T14:54:41.092Z,31.90
2022-08-16T15:01:59.513Z,32.00
2022-08-16T15:09:01.134Z,32.10
2022-08-16T15:16:03.609Z,31.70
2022-08-16T15:23:08.265Z,31.30
2022-08-16T15:30:56.611Z,31.20
2022-08-16T15:37:44.153Z,31.00
2022-08-16T15:44:51.938Z,30.70
2022-08-16T15:51:54.267Z,30.60
2022-08-16T15:58:55.982Z,30.50
2022-08-16T16:06:01.430Z,30.40
2022-08-16T16:13:04.673Z,30.10
2022-08-16T16:20:05.710Z,30.00
2022-08-16T16:27:15.098Z,30.10
2022-08-16T16:34:16.528Z,30.20
2022-08-16T16:41:23.081Z,30.10
2022-08-16T16:48:23.186Z,30.10
2022-08-16T16:55:30.731Z,30.10
2022-08-16T17:02:41.258Z,30.10
2022-08-16T17:09:50.605Z,30.00
2022-08-16T17:16:52.334Z,29.90
2022-08-16T17:23:59.387Z,29.80
2022-08-16T17:31:00.318Z,29.60
2022-08-16T17:38:04.627Z,29.60
2022-08-16T17:45:06.593Z,29.50
2022-08-16T17:52:08.321Z,29.40
2022-08-16T17:59:08.723Z,29.30
2022-08-16T18:06:12.353Z,29.20
2022-08-16T18:13:13.594Z,29.00
2022-08-16T18:20:33.773Z,28.80
2022-08-16T18:27:34.275Z,28.70
2022-08-16T18:34:34.785Z,28.50
2022-08-16T18:41:37.011Z,28.40
2022-08-16T18:48:37.486Z,28.20
2022-08-16T18:55:42.875Z,27.90
2022-08-16T19:02:57.560Z,27.70
2022-08-16T19:10:01.526Z,27.50
2022-08-16T19:17:01.974Z,27.30
2022-08-16T19:24:02.670Z,27.10
2022-08-16T19:31:04.691Z,27.00
2022-08-16T19:38:05.540Z,26.90
2022-08-16T19:45:07.001Z,26.80
2022-08-16T19:52:11.285Z,26.60
2022-08-16T19:59:21.137Z,26.50
2022-08-16T20:06:37.991Z,26.40
2022-08-16T20:13:39.473Z,26.30
2022-08-16T20:20:40.956Z,26.20
2022-08-16T20:27:42.388Z,26.20
2022-08-16T20:34:45.368Z,26.10
2022-08-16T20:41:45.836Z,26.10
2022-08-16T20:48:46.075Z,26.00
2022-08-16T20:55:46.655Z,25.90
2022-08-16T21:02:47.501Z,25.80
2022-08-16T21:09:49.271Z,25.70
2022-08-16T21:16:49.554Z,25.60
2022-08-16T21:23:50.110Z,25.50
2022-08-16T21:30:50.402Z,25.40
2022-08-16T21:38:28.212Z,25.20
2022-08-16T21:45:18.279Z,25.10
2022-08-16T21:52:26.630Z,24.70
2022-08-16T21:59:27.711Z,24.50
2022-08-16T22:06:28.320Z,24.40
2022-08-16T22:13:57.974Z,24.30
2022-08-16T22:21:00.510Z,24.30
2022-08-16T22:28:01.772Z,24.20
2022-08-16T22:35:12.416Z,24.00
2022-08-16T22:42:14.964Z,23.80
2022-08-16T22:49:15.715Z,23.60
2022-08-16T22:56:17.398Z,23.30
2022-08-16T23:03:20.221Z,23.00
2022-08-16T23:10:21.491Z,22.80
2022-08-16T23:17:22.144Z,22.70
2022-08-16T23:24:24.304Z,22.60
2022-08-16T23:31:24.926Z,22.60
2022-08-16T23:38:38.505Z,22.40
2022-08-16T23:45:43.310Z,22.30
2022-08-16T23:53:07.136Z,22.20
